createdAt,value
2022-11-24T00:01:24.185Z,10.53
2022-11-24T00:03:55.984Z,10.68
2022-11-24T00:06:26.855Z,10.95
2022-11-24T00:08:55.761Z,9.96
2022-11-24T00:11:26.180Z,10.43
2022-11-24T00:13:55.217Z,10.12
2022-11-24T00:16:26.123Z,9.66
2022-11-24T00:18:56.579Z,10.17
2022-11-24T00:21:28.301Z,10.40
2022-11-24T00:23:57.379Z,10.40
2022-11-24T00:26:28.305Z,10.49
2022-11-24T00:28:59.063Z,10.66
2022-11-24T00:31:29.253Z,9.61
2022-11-24T00:33:59.796Z,9.05
2022-11-24T00:36:31.876Z,10.04
2022-11-24T00:39:02.432Z,10.55
2022-11-24T00:41:32.028Z,10.85
2022-11-24T00:44:01.406Z,10.91
2022-11-24T00:46:30.096Z,11.09
2022-11-24T00:49:00.399Z,11.10
2022-11-24T00:51:31.384Z,11.17
2022-11-24T00:54:00.039Z,11.03
2022-11-24T00:56:30.347Z,10.85
2022-11-24T00:58:59.167Z,10.73
2022-11-24T01:01:31.039Z,10.68
2022-11-24T01:04:02.454Z,10.87
2022-11-24T01:06:35.675Z,10.97
2022-11-24T01:09:04.717Z,10.80
2022-11-24T01:11:55.216Z,10.79
2022-11-24T01:14:25.488Z,10.64
2022-11-24T01:16:54.534Z,11.05
2022-11-24T01:19:23.606Z,10.37
2022-11-24T01:21:53.512Z,10.69
2022-11-24T01:24:22.321Z,11.09
2022-11-24T01:26:50.881Z,10.74
2022-11-24T01:29:19.500Z,10.70
2022-11-24T01:31:48.047Z,10.88
2022-11-24T01:34:16.674Z,10.51
2022-11-24T01:36:44.958Z,10.48
2022-11-24T01:39:14.739Z,10.52
2022-11-24T01:41:43.219Z,10.75
2022-11-24T01:44:27.866Z,10.26
2022-11-24T01:47:02.490Z,10.53
2022-11-24T01:49:40.619Z,10.27
2022-11-24T01:52:15.353Z,10.57
2022-11-24T01:54:49.161Z,10.67
2022-11-24T01:57:23.824Z,10.45
2022-11-24T01:59:57.366Z,10.52
2022-11-24T02:02:27.258Z,10.09
2022-11-24T02:04:56.668Z,10.48
2022-11-24T02:07:25.670Z,10.71
2022-11-24T02:10:00.504Z,10.79
2022-11-24T02:12:29.816Z,10.52
2022-11-24T02:14:59.883Z,10.61
2022-11-24T02:17:28.156Z,10.83
2022-11-24T02:19:59.748Z,10.92
2022-11-24T02:22:36.300Z,10.45
2022-11-24T02:25:15.424Z,10.95
2022-11-24T02:27:52.265Z,10.90
2022-11-24T02:30:22.462Z,11.12
2022-11-24T02:32:51.257Z,10.54
2022-11-24T02:35:20.249Z,10.88
2022-11-24T02:37:48.579Z,10.99
2022-11-24T02:40:17.794Z,10.98
2022-11-24T02:42:48.290Z,10.74
2022-11-24T02:45:17.363Z,10.42
2022-11-24T02:47:46.041Z,10.07
2022-11-24T02:50:14.528Z,10.31
2022-11-24T02:52:42.818Z,10.98
2022-11-24T02:55:11.140Z,11.06
2022-11-24T02:57:39.457Z,11.30
2022-11-24T03:00:11.713Z,10.16
2022-11-24T03:02:40.615Z,10.34
2022-11-24T03:05:11.953Z,10.57
2022-11-24T03:07:40.381Z,10.37
2022-11-24T03:10:09.396Z,10.24
2022-11-24T03:12:37.820Z,10.51
2022-11-24T03:15:09.368Z,10.60
2022-11-24T03:17:37.747Z,10.58
2022-11-24T03:20:07.058Z,10.28
2022-11-24T03:22:35.588Z,10.39
2022-11-24T03:25:04.033Z,10.48
2022-11-24T03:27:32.736Z,10.69
2022-11-24T03:30:01.063Z,10.75
2022-11-24T03:32:30.824Z,10.09
2022-11-24T03:37:27.314Z,9.94
2022-11-24T03:39:55.715Z,10.13
2022-11-24T03:42:24.282Z,10.44
2022-11-24T03:44:52.659Z,10.29
2022-11-24T03:47:21.026Z,10.93
2022-11-24T03:49:50.780Z,11.18
2022-11-24T03:52:19.157Z,11.05
2022-11-24T03:54:48.122Z,10.58
2022-11-24T03:57:16.623Z,10.39
2022-11-24T03:59:44.939Z,10.27
2022-11-24T04:02:13.322Z,10.52
2022-11-24T04:04:44.669Z,10.80
2022-11-24T04:07:16.938Z,11.11
2022-11-24T04:09:45.690Z,10.71
2022-11-24T04:12:31.254Z,10.32
2022-11-24T04:14:59.592Z,11.04
2022-11-24T04:17:28.879Z,10.93
2022-11-24T04:19:57.376Z,10.43
2022-11-24T04:22:27.115Z,10.32
2022-11-24T04:24:55.443Z,10.40
2022-11-24T04:27:23.824Z,10.62
2022-11-24T04:29:52.143Z,10.50
2022-11-24T04:32:20.690Z,10.80
2022-11-24T04:34:49.041Z,11.05
2022-11-24T04:37:17.456Z,11.06
2022-11-24T04:39:47.262Z,9.98
2022-11-24T04:42:15.703Z,9.83
2022-11-24T04:44:44.090Z,10.27
2022-11-24T04:47:16.843Z,10.72
2022-11-24T04:49:45.285Z,10.92
2022-11-24T04:52:13.659Z,10.67
2022-11-24T04:54:42.113Z,11.17
2022-11-24T04:57:17.794Z,10.89
2022-11-24T04:59:46.479Z,10.82
2022-11-24T05:02:15.155Z,11.14
2022-11-24T05:04:43.659Z,10.77
2022-11-24T05:07:18.068Z,10.38
2022-11-24T05:10:05.271Z,10.32
2022-11-24T05:12:35.026Z,10.15
2022-11-24T05:15:06.247Z,10.29
2022-11-24T05:17:37.470Z,9.77
2022-11-24T05:20:08.004Z,10.07
2022-11-24T05:22:36.601Z,10.69
2022-11-24T05:25:05.370Z,11.17
2022-11-24T05:27:35.114Z,10.66
2022-11-24T05:30:03.575Z,10.77
2022-11-24T05:32:31.929Z,10.63
2022-11-24T05:35:02.242Z,11.14
2022-11-24T05:37:31.369Z,10.69
2022-11-24T05:39:59.734Z,10.92
2022-11-24T05:42:47.201Z,10.82
2022-11-24T05:45:20.840Z,10.33
2022-11-24T05:47:50.550Z,10.60
2022-11-24T05:50:21.230Z,10.49
2022-11-24T05:52:49.935Z,10.91
2022-11-24T05:55:19.635Z,10.95
2022-11-24T05:57:48.105Z,11.06
2022-11-24T06:00:20.248Z,11.33
2022-11-24T06:02:49.305Z,10.95
2022-11-24T06:05:17.957Z,10.91
2022-11-24T06:07:46.521Z,11.06
2022-11-24T06:10:15.751Z,11.26
2022-11-24T06:12:44.245Z,11.19
2022-11-24T06:15:13.768Z,10.86
2022-11-24T06:17:43.557Z,11.18
2022-11-24T06:20:13.128Z,9.51
2022-11-24T06:22:41.454Z,9.97
2022-11-24T06:25:11.023Z,10.39
2022-11-24T06:27:39.361Z,10.50
2022-11-24T06:30:09.177Z,10.21
2022-11-24T06:32:37.509Z,10.55
2022-11-24T06:35:08.186Z,10.12
2022-11-24T06:37:38.267Z,9.51
2022-11-24T06:40:09.950Z,9.98
2022-11-24T06:42:39.081Z,10.72
2022-11-24T06:45:09.743Z,11.01
2022-11-24T06:47:38.463Z,10.77
2022-11-24T06:50:10.627Z,10.64
2022-11-24T06:52:38.960Z,9.76
2022-11-24T06:55:08.674Z,9.72
2022-11-24T06:57:37.345Z,10.00
2022-11-24T07:00:07.934Z,10.07
2022-11-24T07:02:38.810Z,9.67
2022-11-24T07:05:11.362Z,9.73
2022-11-24T07:07:39.776Z,10.19
2022-11-24T07:10:09.496Z,9.79
2022-11-24T07:12:37.837Z,9.86
2022-11-24T07:15:07.989Z,10.74
2022-11-24T07:17:38.011Z,10.52
2022-11-24T07:20:08.989Z,10.28
2022-11-24T07:22:38.684Z,10.27
2022-11-24T07:25:09.895Z,10.42
2022-11-24T07:27:38.527Z,10.20
2022-11-24T07:30:08.779Z,10.04
2022-11-24T07:32:37.387Z,10.21
2022-11-24T07:35:06.967Z,10.38
2022-11-24T07:37:35.341Z,10.75
2022-11-24T07:40:06.090Z,10.18
2022-11-24T07:42:34.774Z,9.46
2022-11-24T07:45:03.428Z,10.25
2022-11-24T07:47:31.803Z,10.22
2022-11-24T07:50:00.192Z,10.26
2022-11-24T07:52:28.576Z,9.96
2022-11-24T07:54:56.955Z,9.77
2022-11-24T07:57:26.686Z,9.97
2022-11-24T07:59:55.016Z,10.27
2022-11-24T08:02:23.473Z,10.72
2022-11-24T08:04:51.847Z,10.87
2022-11-24T08:07:20.260Z,10.60
2022-11-24T08:09:50.375Z,9.98
2022-11-24T08:12:21.675Z,10.52
2022-11-24T08:14:52.494Z,10.51
2022-11-24T08:17:20.867Z,10.49
2022-11-24T08:19:49.203Z,10.45
2022-11-24T08:22:17.660Z,10.69
2022-11-24T08:24:47.989Z,10.41
2022-11-24T08:27:17.455Z,10.82
2022-11-24T08:29:46.805Z,11.30
2022-11-24T08:32:21.996Z,11.15
2022-11-24T08:34:52.091Z,10.71
2022-11-24T08:37:20.615Z,9.52
2022-11-24T08:39:48.975Z,10.71
2022-11-24T08:42:17.357Z,10.81
2022-11-24T08:44:45.706Z,10.03
2022-11-24T08:47:15.491Z,10.58
2022-11-24T08:49:43.796Z,10.30
2022-11-24T08:52:12.147Z,10.78
2022-11-24T08:54:40.880Z,10.12
2022-11-24T08:57:09.270Z,10.21
2022-11-24T08:59:37.636Z,10.01
2022-11-24T09:02:06.163Z,10.17
2022-11-24T09:04:36.266Z,10.36
2022-11-24T09:07:05.024Z,9.97
2022-11-24T09:09:33.521Z,10.11
2022-11-24T09:12:01.995Z,10.22
2022-11-24T09:14:30.779Z,10.23
2022-11-24T09:16:59.266Z,10.95
2022-11-24T09:19:27.737Z,11.33
2022-11-24T09:21:57.497Z,10.45
2022-11-24T09:24:26.013Z,10.67
2022-11-24T09:26:56.543Z,11.13
2022-11-24T09:29:25.380Z,10.45
2022-11-24T09:31:53.715Z,9.96
2022-11-24T09:34:22.363Z,10.79
2022-11-24T09:36:51.629Z,10.22
2022-11-24T09:39:21.362Z,10.49
2022-11-24T09:42:11.912Z,10.51
2022-11-24T09:45:02.954Z,10.20
2022-11-24T09:47:45.846Z,10.77
2022-11-24T09:50:19.981Z,10.65
2022-11-24T09:52:54.895Z,10.84
2022-11-24T09:55:41.203Z,11.88
2022-11-24T09:58:36.983Z,12.41
2022-11-24T10:01:13.819Z,11.92
2022-11-24T10:03:45.001Z,11.85
2022-11-24T10:06:25.549Z,11.85
2022-11-24T10:09:46.444Z,12.08
2022-11-24T10:12:41.782Z,11.76
2022-11-24T10:15:34.819Z,10.99
2022-11-24T10:18:34.140Z,11.41
2022-11-24T10:21:19.717Z,11.46
2022-11-24T10:24:07.543Z,11.73
2022-11-24T10:26:38.920Z,11.53
2022-11-24T10:29:21.878Z,11.30
2022-11-24T10:31:56.223Z,11.35
2022-11-24T10:34:31.049Z,11.81
2022-11-24T10:37:06.286Z,12.07
2022-11-24T10:39:42.187Z,11.67
2022-11-24T10:42:19.253Z,11.07
2022-11-24T10:45:02.248Z,11.05
2022-11-24T10:47:32.164Z,11.08
2022-11-24T10:50:07.250Z,10.83
2022-11-24T10:52:43.001Z,11.16
2022-11-24T10:55:12.010Z,11.67
2022-11-24T10:57:41.916Z,11.53
2022-11-24T11:00:36.892Z,11.99
2022-11-24T11:03:20.979Z,11.33
2022-11-24T11:05:54.919Z,11.17
2022-11-24T11:08:27.241Z,10.73
2022-11-24T11:11:19.527Z,11.82
2022-11-24T11:14:01.913Z,11.49
2022-11-24T11:16:39.330Z,11.19
2022-11-24T11:19:49.074Z,11.20
2022-11-24T11:22:25.807Z,10.81
2022-11-24T11:25:24.192Z,11.06
2022-11-24T11:27:52.619Z,11.05
2022-11-24T11:36:16.852Z,11.44
2022-11-24T11:38:46.427Z,11.65
2022-11-24T11:41:21.739Z,11.39
2022-11-24T11:43:58.170Z,11.30
2022-11-24T11:46:31.552Z,11.33
2022-11-24T11:49:01.739Z,11.71
2022-11-24T11:51:55.121Z,12.33
2022-11-24T11:54:39.699Z,11.39
2022-11-24T11:57:16.715Z,11.77
2022-11-24T12:00:05.037Z,11.23
2022-11-24T12:03:25.319Z,11.02
2022-11-24T12:06:05.717Z,11.14
2022-11-24T12:09:18.600Z,11.50
2022-11-24T12:11:44.467Z,11.26
2022-11-24T12:14:23.932Z,11.78
2022-11-24T12:17:04.102Z,11.75
2022-11-24T12:20:04.467Z,11.41
2022-11-24T12:22:44.064Z,11.74
2022-11-24T12:25:30.664Z,11.59
2022-11-24T12:28:17.635Z,11.69
2022-11-24T12:30:59.230Z,11.68
2022-11-24T12:34:01.961Z,11.71
2022-11-24T12:36:52.002Z,11.72
2022-11-24T12:39:32.796Z,11.83
2022-11-24T12:42:11.852Z,12.29
2022-11-24T12:45:14.190Z,12.11
2022-11-24T12:48:04.842Z,11.61
2022-11-24T12:50:39.230Z,11.72
2022-11-24T12:53:14.719Z,12.16
2022-11-24T12:55:45.661Z,11.96
2022-11-24T12:58:26.238Z,11.85
2022-11-24T13:01:16.151Z,11.89
2022-11-24T13:04:01.595Z,11.93
2022-11-24T13:06:44.389Z,12.39
2022-11-24T13:09:16.123Z,12.16
2022-11-24T13:11:47.350Z,12.39
2022-11-24T13:14:30.541Z,11.74
2022-11-24T13:19:50.611Z,11.48
2022-11-24T13:22:26.258Z,11.95
2022-11-24T13:25:18.786Z,11.52
2022-11-24T13:27:53.017Z,11.82
2022-11-24T13:31:08.547Z,12.40
2022-11-24T13:33:39.229Z,12.35
2022-11-24T13:36:54.791Z,12.24
2022-11-24T13:39:48.932Z,12.78
2022-11-24T13:42:41.653Z,12.46
2022-11-24T13:45:51.166Z,12.02
2022-11-24T13:49:00.220Z,12.02
2022-11-24T13:51:28.947Z,11.56
2022-11-24T13:54:00.948Z,11.91
2022-11-24T13:56:32.023Z,11.93
2022-11-24T13:59:15.449Z,11.65
2022-11-24T14:01:46.909Z,11.57
2022-11-24T14:04:31.763Z,11.87
2022-11-24T14:07:16.799Z,12.00
2022-11-24T14:09:48.955Z,11.55
2022-11-24T14:12:21.254Z,12.07
2022-11-24T14:14:51.336Z,11.94
2022-11-24T14:17:23.578Z,12.53
2022-11-24T14:19:54.319Z,12.51
2022-11-24T14:22:26.933Z,12.28
2022-11-24T14:24:58.237Z,11.94
2022-11-24T14:27:32.695Z,12.39
2022-11-24T14:30:03.859Z,12.48
2022-11-24T14:32:33.585Z,12.57
2022-11-24T14:35:02.080Z,12.44
2022-11-24T14:37:30.519Z,12.39
2022-11-24T14:39:58.881Z,11.55
2022-11-24T14:42:28.513Z,11.74
2022-11-24T14:44:59.363Z,11.60
2022-11-24T14:47:32.225Z,12.24
2022-11-24T14:50:13.281Z,12.30
2022-11-24T14:52:48.175Z,12.40
2022-11-24T14:55:28.718Z,12.37
2022-11-24T14:57:57.518Z,12.08
2022-11-24T15:00:32.104Z,11.75
2022-11-24T15:03:18.786Z,12.31
2022-11-24T15:05:58.418Z,12.11
2022-11-24T15:08:29.349Z,12.12
2022-11-24T15:11:01.459Z,12.15
2022-11-24T15:13:33.454Z,12.15
2022-11-24T15:16:05.975Z,12.22
2022-11-24T15:18:42.003Z,12.29
2022-11-24T15:21:18.869Z,12.19
2022-11-24T15:24:08.118Z,12.08
2022-11-24T15:26:41.624Z,12.25
2022-11-24T15:29:10.927Z,12.43
2022-11-24T15:31:40.119Z,12.68
2022-11-24T15:34:10.770Z,12.50
2022-11-24T15:36:40.803Z,12.50
2022-11-24T15:39:09.386Z,12.72
2022-11-24T15:41:38.008Z,12.49
2022-11-24T15:44:06.792Z,12.06
2022-11-24T15:46:38.577Z,12.36
2022-11-24T15:49:07.915Z,12.45
2022-11-24T15:51:42.308Z,12.50
2022-11-24T15:54:15.326Z,12.56
2022-11-24T15:56:44.654Z,12.53
2022-11-24T15:59:20.261Z,12.79
2022-11-24T16:01:50.932Z,12.74
2022-11-24T16:04:19.810Z,12.65
2022-11-24T16:06:49.896Z,12.76
2022-11-24T16:09:18.692Z,12.57
2022-11-24T16:11:47.324Z,12.49
2022-11-24T16:14:15.934Z,12.68
2022-11-24T16:16:44.659Z,12.57
2022-11-24T16:19:15.825Z,12.58
2022-11-24T16:21:44.509Z,12.65
2022-11-24T16:24:14.611Z,12.63
2022-11-24T16:26:43.282Z,12.54
2022-11-24T16:29:11.943Z,12.58
2022-11-24T16:31:43.485Z,12.66
2022-11-24T16:34:12.202Z,12.53
2022-11-24T16:36:40.811Z,12.53
2022-11-24T16:39:09.419Z,12.58
2022-11-24T16:41:39.524Z,12.66
2022-11-24T16:44:08.134Z,12.62
2022-11-24T16:46:36.734Z,12.70
2022-11-24T16:49:05.352Z,12.62
2022-11-24T16:51:35.128Z,12.61
2022-11-24T16:54:05.260Z,12.53
2022-11-24T16:56:34.019Z,12.41
2022-11-24T16:59:04.473Z,12.53
2022-11-24T17:01:33.892Z,12.57
2022-11-24T17:04:03.723Z,12.35
2022-11-24T17:06:34.340Z,12.22
2022-11-24T17:09:03.030Z,12.36
2022-11-24T17:11:31.655Z,12.20
2022-11-24T17:14:00.416Z,12.25
2022-11-24T17:16:30.750Z,11.97
2022-11-24T17:18:59.868Z,11.45
2022-11-24T17:21:29.182Z,11.59
2022-11-24T17:23:58.875Z,12.02
2022-11-24T17:26:28.528Z,11.26
2022-11-24T17:28:57.254Z,10.86
2022-11-24T17:31:27.613Z,11.36
2022-11-24T17:33:59.117Z,10.73
2022-11-24T17:36:28.500Z,10.75
2022-11-24T17:38:57.302Z,11.21
2022-11-24T17:41:25.902Z,10.69
2022-11-24T17:43:56.691Z,10.78
2022-11-24T17:46:25.731Z,10.55
2022-11-24T17:48:56.425Z,10.40
2022-11-24T17:51:26.211Z,11.05
2022-11-24T17:53:57.339Z,10.34
2022-11-24T17:56:27.848Z,11.04
2022-11-24T17:58:57.778Z,10.82
2022-11-24T18:01:28.585Z,11.38
2022-11-24T18:03:59.149Z,11.57
2022-11-24T18:06:28.850Z,11.16
2022-11-24T18:08:58.649Z,10.72
2022-11-24T18:11:31.716Z,10.40
2022-11-24T18:14:03.498Z,11.03
2022-11-24T18:16:34.298Z,11.31
2022-11-24T18:19:10.726Z,11.55
2022-11-24T18:21:41.546Z,10.94
2022-11-24T18:24:11.492Z,10.96
2022-11-24T18:26:40.797Z,11.40
2022-11-24T18:29:09.996Z,10.67
2022-11-24T18:31:38.761Z,11.09
2022-11-24T18:34:08.945Z,11.13
2022-11-24T18:36:37.885Z,10.96
2022-11-24T18:39:08.918Z,11.75
2022-11-24T18:41:37.691Z,11.69
2022-11-24T18:44:08.526Z,11.36
2022-11-24T18:46:37.684Z,11.42
2022-11-24T18:49:07.991Z,10.91
2022-11-24T18:51:36.789Z,11.17
2022-11-24T18:54:05.830Z,11.50
2022-11-24T18:56:34.333Z,11.14
2022-11-24T18:59:02.903Z,10.96
2022-11-24T19:01:32.253Z,10.61
2022-11-24T19:04:03.446Z,10.46
2022-11-24T19:06:35.942Z,10.93
2022-11-24T19:09:07.880Z,10.62
2022-11-24T19:11:39.071Z,10.23
2022-11-24T19:14:13.060Z,10.45
2022-11-24T19:16:41.733Z,11.02
2022-11-24T19:19:12.983Z,10.28
2022-11-24T19:21:43.237Z,11.00
2022-11-24T19:24:13.210Z,11.32
2022-11-24T19:26:41.997Z,11.23
2022-11-24T19:29:10.541Z,11.22
2022-11-24T19:31:39.981Z,10.96
2022-11-24T19:34:09.014Z,11.22
2022-11-24T19:36:38.235Z,11.86
2022-11-24T19:39:08.454Z,10.95
2022-11-24T19:41:36.847Z,11.22
2022-11-24T19:44:05.411Z,11.20
2022-11-24T19:46:33.875Z,11.25
2022-11-24T19:49:03.966Z,10.28
2022-11-24T19:51:34.815Z,11.32
2022-11-24T19:54:03.780Z,11.06
2022-11-24T19:56:37.056Z,11.11
2022-11-24T19:59:07.357Z,11.26
2022-11-24T20:01:38.147Z,10.49
2022-11-24T20:04:09.193Z,10.53
2022-11-24T20:06:40.215Z,10.31
2022-11-24T20:09:10.995Z,9.68
2022-11-24T20:11:41.306Z,10.34
2022-11-24T20:14:14.091Z,10.69
2022-11-24T20:16:43.443Z,9.80
2022-11-24T20:19:14.392Z,9.54
2022-11-24T20:21:46.148Z,10.35
2022-11-24T20:24:16.733Z,11.07
2022-11-24T20:26:49.430Z,11.10
2022-11-24T20:29:18.416Z,10.87
2022-11-24T20:31:49.273Z,9.59
2022-11-24T20:34:18.535Z,9.93
2022-11-24T20:36:48.679Z,9.67
2022-11-24T20:39:20.520Z,10.58
2022-11-24T20:41:50.330Z,10.25
2022-11-24T20:44:22.374Z,10.59
2022-11-24T20:46:50.945Z,11.05
2022-11-24T20:49:21.955Z,10.18
2022-11-24T20:51:54.468Z,10.73
2022-11-24T20:54:23.273Z,10.83
2022-11-24T20:56:53.052Z,10.18
2022-11-24T20:59:24.358Z,10.75
2022-11-24T21:01:55.504Z,11.24
2022-11-24T21:04:27.504Z,10.76
2022-11-24T21:06:55.960Z,10.13
2022-11-24T21:09:24.788Z,9.90
2022-11-24T21:11:54.787Z,10.53
2022-11-24T21:14:24.456Z,9.62
2022-11-24T21:16:52.986Z,9.97
2022-11-24T21:19:21.416Z,9.80
2022-11-24T21:21:50.163Z,9.47
2022-11-24T21:24:21.607Z,10.13
2022-11-24T21:26:52.803Z,10.54
2022-11-24T21:29:25.529Z,10.05
2022-11-24T21:31:54.083Z,10.19
2022-11-24T21:34:22.462Z,9.77
2022-11-24T21:36:50.862Z,10.61
2022-11-24T21:39:19.283Z,10.42
2022-11-24T21:41:47.761Z,10.56
2022-11-24T21:44:16.675Z,10.29
2022-11-24T21:46:52.651Z,10.34
2022-11-24T21:49:22.725Z,10.87
2022-11-24T21:51:55.469Z,10.94
2022-11-24T21:54:24.201Z,10.37
2022-11-24T21:56:53.810Z,10.30
2022-11-24T21:59:22.759Z,9.28
2022-11-24T22:01:52.698Z,9.49
2022-11-24T22:04:21.159Z,10.98
2022-11-24T22:06:49.503Z,9.74
2022-11-24T22:09:18.670Z,10.56
2022-11-24T22:11:49.143Z,10.38
2022-11-24T22:14:17.903Z,9.59
2022-11-24T22:16:47.069Z,9.41
2022-11-24T22:19:16.922Z,9.94
2022-11-24T22:21:45.556Z,10.05
2022-11-24T22:24:14.137Z,10.14
2022-11-24T22:26:42.483Z,10.64
2022-11-24T22:29:11.053Z,10.50
2022-11-24T22:31:39.523Z,9.94
2022-11-24T22:34:08.119Z,9.35
2022-11-24T22:36:37.829Z,9.39
2022-11-24T22:39:07.440Z,9.77
2022-11-24T22:41:36.946Z,9.49
2022-11-24T22:44:06.197Z,10.29
2022-11-24T22:46:34.690Z,9.98
2022-11-24T22:49:03.626Z,9.04
2022-11-24T22:51:34.326Z,9.75
2022-11-24T22:54:05.939Z,9.59
2022-11-24T22:56:35.323Z,9.48
2022-11-24T22:59:05.127Z,9.37
2022-11-24T23:01:34.702Z,9.14
2022-11-24T23:04:04.100Z,8.83
2022-11-24T23:06:33.859Z,9.44
2022-11-24T23:09:04.797Z,10.37
2022-11-24T23:11:38.439Z,9.68
2022-11-24T23:14:08.546Z,9.63
2022-11-24T23:16:37.288Z,9.25
2022-11-24T23:19:06.701Z,9.47
2022-11-24T23:21:38.317Z,9.42
2022-11-24T23:24:09.751Z,8.98
2022-11-24T23:26:40.501Z,9.84
2022-11-24T23:29:11.261Z,9.48
2022-11-24T23:31:40.879Z,8.58
2022-11-24T23:34:10.150Z,9.87
2022-11-24T23:36:38.784Z,10.05
2022-11-24T23:39:11.873Z,8.50
2022-11-24T23:41:40.472Z,9.43
2022-11-24T23:44:09.375Z,10.26
2022-11-24T23:46:38.253Z,9.52
2022-11-24T23:49:06.881Z,9.13
2022-11-24T23:51:35.514Z,9.20
2022-11-24T23:54:08.415Z,9.40
2022-11-24T23:56:38.692Z,9.15
2022-11-24T23:59:07.337Z,9.58
